Terminal Aerodrome Forecast
Issued by NWS Grand Rapids, MI

Home | Current Version | Previous Version | Text Only | Print | Product List | Glossary On
Versions: 1 2 3 4 5 6 7 8 9 10 11 12 13 14 15 16 17 18 19
000
FTUS43 KGRR 232300
TAFGRR
TAF
KGRR 232340Z 2400/2424 14010KT 2SM RA BR SCT007 OVC012
     FM240300 12010KT 2SM RA BR OVC006
     FM240900 20011KT 1 1/2SM -RA BR OVC004
     FM242100 25011KT 1SM -SN BR OVC004=

USA.gov is the U.S. government's official web portal to all federal, state and local government web resources and services.